createdAt,value
2018-11-11T00:00:17.473Z,13.80
2018-11-11T00:02:46.803Z,15.70
2018-11-11T00:05:15.671Z,15.27
2018-11-11T00:07:45.166Z,14.37
2018-11-11T00:10:14.390Z,14.73
2018-11-11T00:12:43.945Z,15.60
2018-11-11T00:15:13.774Z,16.07
2018-11-11T00:17:45.186Z,16.10
2018-11-11T00:20:14.496Z,16.10
2018-11-11T00:22:43.929Z,17.10
2018-11-11T00:25:13.193Z,16.67
2018-11-11T00:27:42.429Z,18.73
2018-11-11T00:30:17.918Z,16.77
2018-11-11T00:32:47.143Z,17.77
2018-11-11T00:35:16.770Z,16.40
2018-11-11T00:37:45.918Z,15.60
2018-11-11T00:40:15.850Z,17.73
2018-11-11T00:42:45.683Z,15.83
2018-11-11T00:45:15.601Z,16.10
2018-11-11T00:47:45.632Z,17.67
2018-11-11T00:50:15.105Z,17.80
2018-11-11T00:52:46.065Z,19.10
2018-11-11T00:55:17.066Z,26.67
2018-11-11T00:57:46.714Z,19.43
2018-11-11T01:00:17.567Z,20.17
2018-11-11T01:02:47.779Z,20.00
2018-11-11T01:05:16.965Z,21.90
2018-11-11T01:07:46.189Z,19.30
2018-11-11T01:10:16.630Z,19.80
2018-11-11T01:12:46.494Z,19.60
2018-11-11T01:15:16.830Z,18.63
2018-11-11T01:17:46.228Z,17.40
2018-11-11T01:20:17.101Z,19.10
2018-11-11T01:22:46.586Z,17.20
2018-11-11T01:25:17.080Z,18.63
2018-11-11T01:27:46.285Z,19.37
2018-11-11T01:30:15.501Z,20.20
2018-11-11T01:32:44.667Z,19.87
2018-11-11T01:35:15.529Z,20.07
2018-11-11T01:37:44.925Z,21.57
2018-11-11T01:40:14.515Z,22.47
2018-11-11T01:42:44.462Z,22.63
2018-11-11T01:45:16.497Z,22.37
2018-11-11T01:47:46.350Z,24.83
2018-11-11T01:50:15.573Z,24.13
2018-11-11T01:52:44.820Z,22.37
2018-11-11T01:55:14.650Z,25.27
2018-11-11T01:57:44.061Z,26.10
2018-11-11T02:00:15.660Z,24.83
2018-11-11T02:02:45.753Z,25.50
2018-11-11T02:05:15.543Z,30.20
2018-11-11T02:07:46.485Z,24.90
2018-11-11T02:10:15.712Z,25.40
2018-11-11T02:12:45.868Z,25.17
2018-11-11T02:15:16.037Z,22.43
2018-11-11T02:17:45.294Z,25.40
2018-11-11T02:20:15.527Z,23.27
2018-11-11T02:22:45.502Z,23.23
2018-11-11T02:25:14.763Z,20.77
2018-11-11T02:27:44.201Z,23.70
2018-11-11T02:30:19.409Z,20.60
2018-11-11T02:32:48.578Z,20.63
2018-11-11T02:35:17.756Z,18.30
2018-11-11T02:37:47.073Z,19.73
2018-11-11T02:40:17.419Z,23.07
2018-11-11T02:42:46.886Z,23.00
2018-11-11T02:45:17.058Z,21.20
2018-11-11T02:47:46.256Z,22.37
2018-11-11T02:50:16.637Z,23.40
2018-11-11T02:52:46.243Z,23.07
2018-11-11T02:55:16.258Z,23.60
2018-11-11T02:57:45.954Z,23.27
2018-11-11T03:00:17.300Z,23.27
2018-11-11T03:02:47.070Z,23.57
2018-11-11T03:05:17.368Z,24.57
2018-11-11T03:07:47.105Z,23.80
2018-11-11T03:10:16.634Z,22.97
2018-11-11T03:12:46.609Z,23.53
2018-11-11T03:15:16.205Z,22.70
2018-11-11T03:17:45.533Z,24.00
2018-11-11T03:20:14.939Z,23.43
2018-11-11T03:22:44.195Z,21.50
2018-11-11T03:25:14.829Z,23.57
2018-11-11T03:27:44.141Z,20.37
2018-11-11T03:30:14.598Z,21.80
2018-11-11T03:32:43.853Z,19.07
2018-11-11T03:35:13.882Z,20.63
2018-11-11T03:37:43.753Z,17.90
2018-11-11T03:40:15.210Z,18.60
2018-11-11T03:42:44.696Z,19.50
2018-11-11T03:45:15.258Z,19.10
2018-11-11T03:47:45.907Z,18.43
2018-11-11T03:50:15.059Z,20.40
2018-11-11T03:52:45.090Z,19.60
2018-11-11T03:55:14.209Z,18.27
2018-11-11T03:57:43.320Z,19.83
2018-11-11T04:00:14.121Z,18.77
2018-11-11T04:02:43.286Z,19.93
2018-11-11T04:05:13.662Z,19.37
2018-11-11T04:07:42.799Z,22.10
2018-11-11T04:10:14.635Z,20.10
2018-11-11T04:12:43.954Z,19.30
2018-11-11T04:15:14.686Z,18.93
2018-11-11T04:17:43.862Z,20.57
2018-11-11T04:20:14.082Z,17.07
2018-11-11T04:22:43.902Z,19.50
2018-11-11T04:25:14.078Z,17.80
2018-11-11T04:27:43.454Z,19.37
2018-11-11T04:30:13.609Z,18.87
2018-11-11T04:32:43.019Z,18.30
2018-11-11T04:35:12.864Z,17.40
2018-11-11T04:37:42.080Z,19.63
2018-11-11T04:40:12.689Z,19.07
2018-11-11T04:42:41.802Z,19.87
2018-11-11T04:45:13.459Z,18.57
2018-11-11T04:47:42.930Z,19.60
2018-11-11T04:50:13.514Z,21.17
2018-11-11T04:52:43.234Z,18.27
2018-11-11T04:55:12.592Z,18.50
2018-11-11T04:57:42.001Z,17.90
2018-11-11T05:00:12.670Z,17.13
2018-11-11T05:02:42.132Z,19.40
2018-11-11T05:05:12.541Z,19.67
2018-11-11T05:07:42.352Z,20.00
2018-11-11T05:10:12.502Z,18.33
2018-11-11T05:12:41.888Z,17.77
2018-11-11T05:15:12.569Z,20.83
2018-11-11T05:17:41.858Z,20.10
2018-11-11T05:20:11.455Z,21.50
2018-11-11T05:22:41.366Z,19.50
2018-11-11T05:25:12.335Z,20.73
2018-11-11T05:27:41.791Z,19.37
2018-11-11T05:30:12.094Z,17.97
2018-11-11T05:32:41.301Z,19.67
2018-11-11T05:35:11.491Z,17.97
2018-11-11T05:37:41.416Z,18.27
2018-11-11T05:40:11.530Z,17.70
2018-11-11T05:42:41.694Z,17.67
2018-11-11T05:45:12.118Z,17.27
2018-11-11T05:47:41.771Z,16.97
2018-11-11T05:50:13.481Z,16.87
2018-11-11T05:52:44.002Z,15.93
2018-11-11T05:55:13.139Z,16.00
2018-11-11T05:57:42.290Z,15.67
2018-11-11T06:00:13.300Z,15.90
2018-11-11T06:02:42.493Z,17.43
2018-11-11T06:05:12.882Z,16.73
2018-11-11T06:07:42.094Z,16.80
2018-11-11T06:10:12.710Z,15.47
2018-11-11T06:12:41.843Z,17.70
2018-11-11T06:15:12.358Z,17.67
2018-11-11T06:17:41.475Z,16.73
2018-11-11T06:20:13.062Z,15.20
2018-11-11T06:22:42.938Z,17.17
2018-11-11T06:25:12.675Z,16.47
2018-11-11T06:27:41.835Z,16.07
2018-11-11T06:30:11.832Z,16.10
2018-11-11T06:32:40.999Z,17.17
2018-11-11T06:35:10.134Z,16.40
2018-11-11T06:37:40.349Z,15.53
2018-11-11T06:40:11.516Z,18.17
2018-11-11T06:42:41.238Z,17.27
2018-11-11T06:45:12.558Z,18.00
2018-11-11T06:47:42.342Z,16.00
2018-11-11T06:50:12.806Z,17.03
2018-11-11T06:52:42.512Z,16.77
2018-11-11T06:55:12.028Z,17.73
2018-11-11T06:57:41.291Z,17.73
2018-11-11T07:00:14.476Z,19.10
2018-11-11T07:03:00.588Z,17.87
2018-11-11T07:05:29.730Z,19.60
2018-11-11T07:07:58.839Z,19.53
2018-11-11T07:10:28.369Z,20.00
2018-11-11T07:12:57.486Z,18.37
2018-11-11T07:15:27.353Z,18.00
2018-11-11T07:17:56.446Z,19.37
2018-11-11T07:20:25.682Z,21.03
2018-11-11T07:23:01.122Z,21.93
2018-11-11T07:25:29.933Z,19.73
2018-11-11T07:27:59.238Z,20.90
2018-11-11T07:30:28.370Z,20.30
2018-11-11T07:32:57.645Z,19.13
2018-11-11T07:35:26.862Z,19.93
2018-11-11T07:37:56.058Z,20.60
2018-11-11T07:40:25.804Z,17.83
2018-11-11T07:42:54.930Z,18.93
2018-11-11T07:45:24.046Z,18.83
2018-11-11T07:47:53.236Z,16.53
2018-11-11T07:50:22.298Z,17.10
2018-11-11T07:52:51.455Z,16.67
2018-11-11T07:55:20.587Z,16.80
2018-11-11T07:57:49.750Z,16.13
2018-11-11T08:00:18.887Z,14.83
2018-11-11T08:02:48.002Z,15.17
2018-11-11T08:05:17.191Z,17.07
2018-11-11T08:07:46.688Z,15.77
2018-11-11T08:10:32.647Z,17.90
2018-11-11T08:13:01.819Z,17.77
2018-11-11T08:15:31.342Z,19.40
2018-11-11T08:18:00.223Z,16.70
2018-11-11T08:20:29.376Z,17.27
2018-11-11T08:22:58.535Z,14.77
2018-11-11T08:25:27.739Z,16.60
2018-11-11T08:27:56.937Z,15.83
2018-11-11T08:30:26.087Z,15.20
2018-11-11T08:32:55.225Z,14.17
2018-11-11T08:35:25.574Z,14.60
2018-11-11T08:37:54.719Z,13.20
2018-11-11T08:40:23.908Z,13.90
2018-11-11T08:42:52.986Z,13.60
2018-11-11T08:45:22.691Z,12.63
2018-11-11T08:47:51.891Z,11.50
2018-11-11T08:50:21.023Z,10.83
2018-11-11T08:52:50.202Z,9.47
2018-11-11T08:55:20.794Z,10.07
2018-11-11T08:57:49.974Z,9.40
2018-11-11T09:00:19.114Z,8.97
2018-11-11T09:02:48.225Z,9.63
2018-11-11T09:05:17.326Z,8.40
2018-11-11T09:07:47.115Z,8.80
2018-11-11T09:10:16.190Z,7.80
2018-11-11T09:12:45.366Z,8.97
2018-11-11T09:15:15.425Z,7.90
2018-11-11T09:17:45.466Z,7.73
2018-11-11T09:20:15.274Z,7.20
2018-11-11T09:22:44.466Z,6.73
2018-11-11T09:25:13.646Z,6.00
2018-11-11T09:27:43.166Z,6.17
2018-11-11T09:30:14.572Z,7.13
2018-11-11T09:32:43.858Z,7.20
2018-11-11T09:35:13.063Z,6.80
2018-11-11T09:37:42.212Z,7.40
2018-11-11T09:40:12.526Z,5.40
2018-11-11T09:42:41.753Z,6.40
2018-11-11T09:45:13.178Z,8.50
2018-11-11T09:47:42.552Z,6.23
2018-11-11T09:50:14.072Z,7.80
2018-11-11T09:52:43.529Z,5.10
2018-11-11T09:55:13.455Z,5.20
2018-11-11T09:57:42.759Z,5.50
2018-11-11T10:00:18.501Z,4.90
2018-11-11T10:02:58.211Z,4.20
2018-11-11T10:05:38.922Z,4.40
2018-11-11T10:10:16.276Z,4.33
2018-11-11T10:12:56.250Z,3.50
2018-11-11T10:16:02.688Z,4.97
2018-11-11T10:20:41.474Z,4.13
2018-11-11T10:23:21.031Z,4.90
2018-11-11T10:25:57.833Z,4.00
2018-11-11T10:28:32.231Z,5.20
2018-11-11T10:31:08.229Z,5.57
2018-11-11T10:33:39.741Z,6.80
2018-11-11T10:38:18.303Z,5.60
2018-11-11T10:41:01.481Z,4.67
2018-11-11T10:44:06.665Z,5.60
2018-11-11T10:46:44.718Z,5.60
2018-11-11T10:49:15.918Z,6.20
2018-11-11T10:51:45.406Z,5.50
2018-11-11T10:54:15.915Z,4.80
2018-11-11T10:56:44.998Z,5.13
2018-11-11T10:59:15.194Z,7.03
2018-11-11T11:01:49.638Z,4.87
2018-11-11T11:04:18.806Z,4.60
2018-11-11T11:06:54.217Z,4.23
2018-11-11T11:09:23.850Z,4.30
2018-11-11T11:11:53.428Z,3.67
2018-11-11T11:14:22.801Z,2.93
2018-11-11T11:16:52.187Z,3.87
2018-11-11T11:19:22.650Z,3.30
2018-11-11T11:21:51.990Z,4.10
2018-11-11T11:24:20.667Z,3.37
2018-11-11T11:26:49.790Z,4.60
2018-11-11T11:29:18.953Z,3.47
2018-11-11T11:31:48.228Z,4.80
2018-11-11T11:34:17.613Z,4.73
2018-11-11T11:36:47.666Z,3.83
2018-11-11T11:39:16.770Z,3.00
2018-11-11T11:41:46.055Z,3.07
2018-11-11T11:44:17.169Z,3.80
2018-11-11T11:46:46.806Z,3.57
2018-11-11T11:49:15.923Z,3.57
2018-11-11T11:51:45.048Z,4.17
2018-11-11T11:54:14.423Z,3.93
2018-11-11T11:56:43.933Z,4.20
2018-11-11T11:59:13.125Z,3.33
2018-11-11T12:01:44.706Z,3.90
2018-11-11T12:04:14.087Z,5.20
2018-11-11T12:06:43.096Z,5.17
2018-11-11T12:09:12.420Z,4.00
2018-11-11T12:11:41.766Z,4.30
2018-11-11T12:14:11.218Z,5.00
2018-11-11T12:16:39.773Z,4.37
2018-11-11T12:19:09.055Z,4.10
2018-11-11T12:21:38.510Z,4.30
2018-11-11T12:24:08.123Z,4.60
2018-11-11T12:26:37.975Z,4.53
2018-11-11T12:29:07.109Z,4.80
2018-11-11T12:31:36.226Z,4.20
2018-11-11T12:34:05.829Z,4.53
2018-11-11T12:36:34.957Z,4.37
2018-11-11T12:39:06.342Z,4.73
2018-11-11T12:41:36.006Z,6.20
2018-11-11T12:44:05.894Z,6.50
2018-11-11T12:46:38.185Z,7.47
2018-11-11T12:49:07.358Z,7.63
2018-11-11T12:51:36.407Z,6.13
2018-11-11T12:54:06.369Z,7.13
2018-11-11T12:56:35.666Z,6.57
2018-11-11T12:59:04.793Z,6.30
2018-11-11T13:01:33.963Z,6.43
2018-11-11T13:04:03.582Z,4.70
2018-11-11T13:06:33.138Z,3.00
2018-11-11T13:09:02.727Z,2.70
2018-11-11T13:11:33.000Z,3.20
2018-11-11T13:14:02.887Z,3.00
2018-11-11T13:16:32.186Z,4.70
2018-11-11T13:19:01.897Z,4.90
2018-11-11T13:21:31.058Z,5.33
2018-11-11T13:24:00.395Z,4.50
2018-11-11T13:26:31.186Z,5.10
2018-11-11T13:29:01.550Z,4.47
2018-11-11T13:31:30.856Z,5.30
2018-11-11T13:33:59.979Z,4.90
2018-11-11T13:36:31.300Z,4.83
2018-11-11T13:39:00.676Z,5.80
2018-11-11T13:41:29.874Z,8.80
2018-11-11T13:43:59.634Z,18.60
2018-11-11T13:46:28.940Z,17.20
2018-11-11T13:48:58.207Z,9.20
2018-11-11T13:51:27.869Z,6.87
2018-11-11T13:53:57.630Z,6.17
2018-11-11T13:56:59.386Z,7.77
2018-11-11T13:59:28.746Z,8.80
2018-11-11T14:01:58.239Z,8.60
2018-11-11T14:04:27.371Z,8.53
2018-11-11T14:06:56.474Z,8.57
2018-11-11T14:09:25.799Z,6.30
2018-11-11T14:11:54.922Z,8.57
2018-11-11T14:14:24.061Z,7.57
2018-11-11T14:16:54.819Z,7.50
2018-11-11T14:19:24.429Z,5.60
2018-11-11T14:21:54.403Z,12.50
2018-11-11T14:24:24.852Z,9.77
2018-11-11T14:26:54.970Z,8.50
2018-11-11T14:29:23.857Z,14.77
2018-11-11T14:31:52.970Z,10.73
2018-11-11T14:34:20.968Z,17.10
2018-11-11T14:36:50.872Z,22.17
2018-11-11T14:39:20.180Z,12.80
2018-11-11T14:41:49.286Z,10.00
2018-11-11T14:44:18.442Z,14.57
2018-11-11T14:46:47.522Z,5.23
2018-11-11T14:49:16.634Z,5.07
2018-11-11T14:51:45.811Z,7.63
2018-11-11T14:54:14.928Z,10.40
2018-11-11T14:56:44.034Z,9.03
2018-11-11T14:59:13.832Z,4.50
2018-11-11T15:01:43.854Z,9.03
2018-11-11T15:04:13.163Z,6.07
2018-11-11T15:06:42.504Z,9.00
2018-11-11T15:09:13.093Z,6.60
2018-11-11T15:11:42.248Z,4.97
2018-11-11T15:14:12.451Z,8.70
2018-11-11T15:16:42.223Z,8.10
2018-11-11T15:19:12.238Z,5.43
2018-11-11T15:21:42.103Z,10.07
2018-11-11T15:24:11.971Z,8.70
2018-11-11T15:26:40.834Z,3.90
2018-11-11T15:29:11.391Z,4.30
2018-11-11T15:31:40.736Z,4.90
2018-11-11T15:34:09.837Z,3.87
2018-11-11T15:36:41.520Z,7.03
2018-11-11T15:39:11.963Z,8.23
2018-11-11T15:41:41.829Z,4.27
2018-11-11T15:44:11.118Z,4.43
2018-11-11T15:46:40.474Z,3.87
2018-11-11T15:49:09.574Z,3.07
2018-11-11T15:51:39.257Z,8.00
2018-11-11T15:54:08.366Z,6.40
2018-11-11T15:56:38.287Z,10.97
2018-11-11T15:59:07.485Z,10.70
2018-11-11T16:01:37.840Z,9.17
2018-11-11T16:04:07.673Z,6.77
2018-11-11T16:06:36.772Z,4.93
2018-11-11T16:09:08.582Z,5.73
2018-11-11T16:11:40.499Z,7.57
2018-11-11T16:14:10.297Z,5.93
2018-11-11T16:16:39.570Z,6.37
2018-11-11T16:19:09.159Z,9.40
2018-11-11T16:21:39.611Z,11.93
2018-11-11T16:24:09.146Z,16.80
2018-11-11T16:26:37.855Z,12.33
2018-11-11T16:29:08.131Z,22.67
2018-11-11T16:31:37.337Z,25.60
2018-11-11T16:34:08.487Z,14.23
2018-11-11T16:36:38.732Z,19.27
2018-11-11T16:39:10.048Z,18.50
2018-11-11T16:41:38.782Z,20.10
2018-11-11T16:44:07.901Z,11.10
2018-11-11T16:46:38.327Z,23.07
2018-11-11T16:49:08.225Z,19.30
2018-11-11T16:51:38.179Z,17.60
2018-11-11T16:54:08.261Z,18.67
2018-11-11T16:56:37.982Z,19.00
2018-11-11T16:59:07.386Z,13.93
2018-11-11T17:01:36.614Z,17.33
2018-11-11T17:04:06.002Z,11.97
2018-11-11T17:06:35.770Z,17.67
2018-11-11T17:09:08.934Z,14.40
2018-11-11T17:11:44.242Z,13.70
2018-11-11T17:14:13.994Z,17.40
2018-11-11T17:16:43.853Z,16.03
2018-11-11T17:19:14.098Z,16.20
2018-11-11T17:21:43.881Z,16.70
2018-11-11T17:24:13.083Z,16.03
2018-11-11T17:26:41.802Z,16.40
2018-11-11T17:29:11.715Z,15.70
2018-11-11T17:31:40.930Z,14.83
2018-11-11T17:34:10.478Z,13.07
2018-11-11T17:36:39.811Z,11.07
2018-11-11T17:39:11.460Z,10.17
2018-11-11T17:41:41.317Z,10.70
2018-11-11T17:44:10.122Z,12.47
2018-11-11T17:46:38.977Z,12.20
2018-11-11T17:49:09.477Z,13.43
2018-11-11T17:51:39.594Z,12.90
2018-11-11T17:54:08.899Z,10.73
2018-11-11T17:56:38.133Z,9.60
2018-11-11T17:59:07.044Z,11.30
2018-11-11T18:01:36.438Z,12.57
2018-11-11T18:04:06.622Z,11.13
2018-11-11T18:06:35.778Z,11.63
2018-11-11T18:09:08.278Z,10.43
2018-11-11T18:11:39.253Z,13.30
2018-11-11T18:14:08.965Z,12.07
2018-11-11T18:16:38.103Z,10.63
2018-11-11T18:19:07.267Z,11.30
2018-11-11T18:21:36.518Z,11.00
2018-11-11T18:24:06.232Z,10.80
2018-11-11T18:26:35.229Z,12.87
2018-11-11T18:29:04.486Z,13.57
2018-11-11T18:31:33.653Z,13.50
2018-11-11T18:34:02.918Z,14.43
2018-11-11T18:36:32.446Z,13.93
2018-11-11T18:39:01.684Z,12.73
2018-11-11T18:41:30.821Z,13.37
2018-11-11T18:43:59.941Z,14.27
2018-11-11T18:46:29.274Z,15.90
2018-11-11T18:48:58.408Z,14.03
2018-11-11T18:51:27.941Z,13.63
2018-11-11T18:53:57.178Z,16.30
2018-11-11T18:56:26.292Z,17.27
2018-11-11T18:58:55.441Z,15.40
2018-11-11T19:01:24.675Z,14.53
2018-11-11T19:03:53.793Z,13.60
2018-11-11T19:06:22.890Z,13.63
2018-11-11T19:08:52.062Z,12.37
2018-11-11T19:11:21.643Z,13.13
2018-11-11T19:13:50.826Z,13.70
2018-11-11T19:16:20.077Z,15.93
2018-11-11T19:18:49.252Z,15.27
2018-11-11T19:21:18.321Z,16.70
2018-11-11T19:23:48.297Z,15.70
2018-11-11T19:26:18.071Z,16.00
2018-11-11T19:28:47.423Z,16.23
2018-11-11T19:31:16.538Z,15.80
2018-11-11T19:33:46.138Z,14.50
2018-11-11T19:36:15.238Z,14.00
2018-11-11T19:38:44.416Z,14.13
2018-11-11T19:41:13.521Z,14.03
2018-11-11T19:43:42.635Z,13.20
2018-11-11T19:46:12.083Z,12.53
2018-11-11T19:48:41.251Z,12.60
2018-11-11T19:51:10.375Z,12.67
2018-11-11T19:53:40.582Z,13.10
2018-11-11T19:56:10.715Z,12.97
2018-11-11T19:58:39.847Z,12.90
2018-11-11T20:01:09.003Z,12.47
2018-11-11T20:03:38.159Z,13.50
2018-11-11T20:06:07.360Z,13.57
2018-11-11T20:08:36.517Z,14.67
2018-11-11T20:11:05.838Z,14.00
2018-11-11T20:13:34.966Z,12.30
2018-11-11T20:16:04.320Z,11.50
2018-11-11T20:18:34.058Z,11.93
2018-11-11T20:21:03.570Z,12.13
2018-11-11T20:23:32.922Z,11.67
2018-11-11T20:26:02.902Z,11.87
2018-11-11T20:28:32.291Z,11.10
2018-11-11T20:31:01.959Z,17.20
2018-11-11T20:33:31.252Z,19.97
2018-11-11T20:36:01.098Z,16.50
2018-11-11T20:38:30.976Z,16.07
2018-11-11T20:41:00.849Z,15.10
2018-11-11T20:43:31.195Z,15.60
2018-11-11T20:46:01.412Z,17.33
2018-11-11T20:48:32.027Z,15.27
2018-11-11T20:51:01.698Z,12.90
2018-11-11T20:53:30.834Z,13.00
2018-11-11T20:56:00.257Z,15.10
2018-11-11T20:58:29.734Z,14.13
2018-11-11T21:00:58.838Z,15.67
2018-11-11T21:03:28.146Z,14.70
2018-11-11T21:05:57.290Z,16.03
2018-11-11T21:08:26.465Z,15.90
2018-11-11T21:10:55.601Z,16.47
2018-11-11T21:13:24.762Z,15.73
2018-11-11T21:15:53.878Z,15.60
2018-11-11T21:18:22.994Z,16.23
2018-11-11T21:20:52.132Z,16.40
2018-11-11T21:23:21.983Z,17.30
2018-11-11T21:25:51.622Z,14.37
2018-11-11T21:28:20.899Z,14.87
2018-11-11T21:30:50.030Z,15.93
2018-11-11T21:33:21.309Z,17.03
2018-11-11T21:35:50.622Z,15.23
2018-11-11T21:38:19.879Z,16.73
2018-11-11T21:40:48.912Z,17.17
2018-11-11T21:43:18.834Z,16.80
2018-11-11T21:45:48.058Z,18.97
2018-11-11T21:48:17.134Z,17.57
2018-11-11T21:50:46.309Z,18.43
2018-11-11T21:53:29.487Z,17.90
2018-11-11T21:55:59.383Z,17.60
2018-11-11T21:58:29.182Z,17.20
2018-11-11T22:00:58.314Z,15.60
2018-11-11T22:03:27.529Z,18.20
2018-11-11T22:05:56.986Z,15.53
2018-11-11T22:08:26.107Z,17.20
2018-11-11T22:10:55.431Z,14.20
2018-11-11T22:13:24.782Z,15.33
2018-11-11T22:15:53.618Z,13.97
2018-11-11T22:18:22.805Z,12.10
2018-11-11T22:20:53.218Z,14.87
2018-11-11T22:23:22.762Z,16.90
2018-11-11T22:25:51.950Z,20.07
2018-11-11T22:28:21.310Z,20.73
2018-11-11T22:30:50.090Z,20.10
2018-11-11T22:33:19.509Z,16.80
2018-11-11T22:35:48.638Z,17.37
2018-11-11T22:38:17.779Z,14.73
2018-11-11T22:40:46.873Z,13.50
2018-11-11T22:43:17.591Z,15.43
2018-11-11T22:45:46.731Z,14.10
2018-11-11T22:48:18.358Z,14.13
2018-11-11T22:50:47.556Z,14.00
2018-11-11T22:53:17.257Z,13.17
2018-11-11T22:55:47.146Z,11.20
2018-11-11T22:58:16.264Z,14.10
2018-11-11T23:00:51.406Z,15.83
2018-11-11T23:03:20.539Z,14.60
2018-11-11T23:05:49.650Z,13.53
2018-11-11T23:08:18.990Z,12.77
2018-11-11T23:10:48.099Z,12.27
2018-11-11T23:13:17.225Z,11.10
2018-11-11T23:15:46.514Z,11.83
2018-11-11T23:18:15.833Z,8.90
2018-11-11T23:20:44.956Z,9.10
2018-11-11T23:23:14.466Z,9.87
2018-11-11T23:25:43.607Z,10.90
2018-11-11T23:28:12.800Z,10.17
2018-11-11T23:30:41.911Z,10.93
2018-11-11T23:33:11.587Z,11.47
2018-11-11T23:35:40.726Z,10.97
2018-11-11T23:38:09.857Z,9.47
2018-11-11T23:40:39.051Z,12.27
2018-11-11T23:43:08.592Z,14.67
2018-11-11T23:45:37.833Z,12.80
2018-11-11T23:48:07.133Z,12.73
2018-11-11T23:50:36.554Z,12.87
2018-11-11T23:53:05.934Z,12.90
2018-11-11T23:55:35.211Z,11.40
2018-11-11T23:58:03.978Z,14.63
